createdAt,value
2018-11-06T00:01:58.525Z,28.77
2018-11-06T00:04:31.981Z,28.05
2018-11-06T00:06:59.578Z,29.27
2018-11-06T00:09:27.399Z,27.75
2018-11-06T00:11:54.886Z,28.83
2018-11-06T00:14:22.438Z,29.33
2018-11-06T00:16:50.138Z,28.95
2018-11-06T00:19:18.094Z,29.00
2018-11-06T00:21:45.790Z,27.20
2018-11-06T00:24:13.575Z,31.97
2018-11-06T00:26:41.216Z,29.90
2018-11-06T00:29:08.837Z,27.90
2018-11-06T00:31:36.506Z,28.32
2018-11-06T00:34:04.641Z,29.57
2018-11-06T00:36:32.247Z,29.87
2018-11-06T00:38:59.907Z,29.32
2018-11-06T00:41:27.570Z,31.10
2018-11-06T00:43:55.267Z,28.67
2018-11-06T00:46:22.900Z,30.47
2018-11-06T00:48:50.530Z,29.42
2018-11-06T00:51:18.154Z,29.10
2018-11-06T00:53:46.146Z,29.77
2018-11-06T00:56:13.748Z,30.80
2018-11-06T00:58:41.310Z,32.20
2018-11-06T01:01:08.864Z,31.75
2018-11-06T01:03:42.101Z,28.83
2018-11-06T01:06:09.735Z,30.77
2018-11-06T01:08:37.394Z,29.42
2018-11-06T01:11:05.171Z,32.20
2018-11-06T01:13:32.825Z,30.40
2018-11-06T01:16:00.486Z,31.30
2018-11-06T01:18:28.182Z,32.10
2018-11-06T01:20:55.838Z,32.33
2018-11-06T01:23:23.442Z,29.40
2018-11-06T01:25:51.049Z,32.10
2018-11-06T01:28:18.653Z,32.20
2018-11-06T01:30:46.271Z,30.13
2018-11-06T01:33:13.894Z,32.17
2018-11-06T01:35:41.547Z,34.63
2018-11-06T01:38:09.188Z,32.43
2018-11-06T01:40:36.833Z,33.00
2018-11-06T01:43:04.637Z,31.42
2018-11-06T01:45:32.355Z,32.25
2018-11-06T01:48:00.018Z,32.07
2018-11-06T01:50:27.685Z,32.60
2018-11-06T01:52:55.323Z,31.30
2018-11-06T01:55:22.951Z,30.97
2018-11-06T01:57:50.563Z,32.73
2018-11-06T02:00:18.848Z,31.62
2018-11-06T02:02:46.751Z,33.03
2018-11-06T02:05:15.601Z,32.70
2018-11-06T02:07:44.509Z,32.80
2018-11-06T02:10:13.069Z,33.03
2018-11-06T02:12:41.495Z,31.93
2018-11-06T02:15:09.715Z,33.10
2018-11-06T02:17:38.111Z,33.43
2018-11-06T02:20:06.483Z,33.60
2018-11-06T02:22:34.090Z,33.00
2018-11-06T02:25:01.777Z,33.25
2018-11-06T02:27:29.419Z,32.60
2018-11-06T02:29:57.029Z,33.70
2018-11-06T02:32:24.673Z,32.43
2018-11-06T02:34:52.301Z,36.08
2018-11-06T02:37:19.959Z,33.20
2018-11-06T02:39:47.575Z,35.03
2018-11-06T02:42:15.239Z,33.92
2018-11-06T02:44:42.939Z,32.37
2018-11-06T02:47:10.539Z,33.85
2018-11-06T02:49:38.564Z,34.15
2018-11-06T02:52:06.193Z,33.85
2018-11-06T02:54:33.815Z,33.77
2018-11-06T02:57:01.431Z,33.20
2018-11-06T02:59:29.098Z,35.68
2018-11-06T03:01:58.982Z,31.85
2018-11-06T03:04:26.771Z,35.37
2018-11-06T03:06:54.465Z,34.58
2018-11-06T03:09:22.089Z,33.83
2018-11-06T03:11:49.789Z,34.63
2018-11-06T03:14:17.489Z,36.80
2018-11-06T03:16:45.220Z,34.17
2018-11-06T03:19:12.841Z,35.23
2018-11-06T03:21:40.499Z,33.47
2018-11-06T03:24:08.371Z,36.20
2018-11-06T03:26:36.032Z,36.27
2018-11-06T03:29:04.016Z,36.83
2018-11-06T03:31:31.707Z,34.77
2018-11-06T03:33:59.518Z,35.78
2018-11-06T03:36:27.157Z,36.73
2018-11-06T03:38:54.762Z,34.15
2018-11-06T03:41:22.402Z,34.90
2018-11-06T03:43:50.022Z,35.70
2018-11-06T03:46:17.634Z,36.70
2018-11-06T03:48:45.238Z,36.40
2018-11-06T03:51:12.892Z,36.03
2018-11-06T03:53:40.536Z,35.60
2018-11-06T03:56:08.736Z,34.83
2018-11-06T03:58:36.625Z,35.40
2018-11-06T04:01:04.449Z,38.57
2018-11-06T04:03:32.049Z,36.70
2018-11-06T04:05:59.649Z,34.85
2018-11-06T04:08:27.269Z,37.30
2018-11-06T04:10:54.861Z,37.03
2018-11-06T04:13:22.483Z,34.95
2018-11-06T04:15:50.179Z,35.23
2018-11-06T04:18:17.911Z,33.17
2018-11-06T04:20:45.633Z,34.70
2018-11-06T04:23:13.290Z,35.55
2018-11-06T04:25:40.957Z,34.90
2018-11-06T04:28:08.597Z,34.75
2018-11-06T04:30:36.287Z,36.05
2018-11-06T04:33:03.989Z,35.07
2018-11-06T04:35:38.477Z,36.10
2018-11-06T04:38:06.149Z,36.40
2018-11-06T04:40:33.854Z,35.68
2018-11-06T04:43:01.506Z,34.08
2018-11-06T04:45:29.142Z,37.40
2018-11-06T04:47:56.799Z,34.77
2018-11-06T04:50:25.346Z,35.92
2018-11-06T04:52:53.052Z,35.43
2018-11-06T04:55:20.708Z,38.90
2018-11-06T04:57:48.374Z,37.50
2018-11-06T05:00:16.041Z,36.68
2018-11-06T05:02:43.996Z,37.75
2018-11-06T05:05:12.182Z,34.43
2018-11-06T05:07:40.219Z,36.58
2018-11-06T05:10:10.414Z,35.40
2018-11-06T05:12:38.219Z,33.07
2018-11-06T05:15:07.752Z,36.43
2018-11-06T05:17:35.454Z,33.90
2018-11-06T05:20:04.366Z,36.33
2018-11-06T05:25:07.232Z,35.43
2018-11-06T05:27:34.909Z,37.70
2018-11-06T05:30:02.561Z,35.48
2018-11-06T05:32:30.226Z,35.95
2018-11-06T05:34:58.033Z,36.80
2018-11-06T05:37:25.721Z,36.93
2018-11-06T05:40:10.987Z,34.93
2018-11-06T05:42:38.624Z,35.10
2018-11-06T05:45:06.363Z,33.85
2018-11-06T05:47:33.955Z,36.42
2018-11-06T05:50:01.658Z,36.77
2018-11-06T05:52:29.359Z,36.10
2018-11-06T05:54:57.057Z,37.50
2018-11-06T05:57:24.775Z,32.63
2018-11-06T05:59:52.680Z,34.60
2018-11-06T06:02:20.370Z,35.15
2018-11-06T06:04:48.014Z,34.90
2018-11-06T06:07:15.734Z,35.00
2018-11-06T06:09:44.316Z,33.00
2018-11-06T06:12:11.997Z,35.97
2018-11-06T06:14:39.649Z,33.80
2018-11-06T06:17:07.636Z,34.60
2018-11-06T06:19:35.587Z,35.35
2018-11-06T06:22:03.591Z,35.48
2018-11-06T06:24:31.292Z,35.63
2018-11-06T06:26:59.115Z,35.98
2018-11-06T06:29:27.135Z,32.43
2018-11-06T06:31:54.817Z,35.05
2018-11-06T06:34:22.421Z,34.43
2018-11-06T06:36:50.052Z,34.73
2018-11-06T06:39:17.688Z,35.58
2018-11-06T06:41:45.326Z,35.10
2018-11-06T06:44:12.930Z,34.60
2018-11-06T06:46:40.683Z,35.40
2018-11-06T06:49:08.315Z,33.33
2018-11-06T06:51:35.947Z,36.50
2018-11-06T06:54:03.675Z,33.53
2018-11-06T06:56:31.287Z,32.95
2018-11-06T06:58:58.962Z,35.10
2018-11-06T07:01:26.601Z,32.97
2018-11-06T07:03:54.648Z,34.13
2018-11-06T07:06:22.352Z,34.10
2018-11-06T07:08:49.949Z,34.98
2018-11-06T07:11:17.814Z,35.33
2018-11-06T07:13:45.415Z,32.37
2018-11-06T07:16:13.079Z,32.63
2018-11-06T07:18:40.809Z,33.05
2018-11-06T07:21:08.459Z,30.73
2018-11-06T07:23:36.124Z,35.28
2018-11-06T07:26:04.033Z,31.80
2018-11-06T07:28:31.683Z,32.33
2018-11-06T07:30:59.357Z,33.00
2018-11-06T07:33:27.052Z,31.80
2018-11-06T07:35:54.826Z,30.15
2018-11-06T07:38:22.449Z,32.48
2018-11-06T07:40:50.188Z,31.97
2018-11-06T07:43:17.817Z,30.53
2018-11-06T07:45:45.500Z,30.67
2018-11-06T07:48:13.162Z,32.13
2018-11-06T07:50:40.860Z,30.93
2018-11-06T07:53:08.535Z,31.55
2018-11-06T07:55:36.325Z,31.05
2018-11-06T07:58:04.099Z,30.20
2018-11-06T08:00:31.805Z,30.53
2018-11-06T08:02:59.462Z,31.30
2018-11-06T08:05:27.179Z,30.47
2018-11-06T08:07:54.901Z,27.90
2018-11-06T08:10:22.607Z,29.80
2018-11-06T08:12:52.428Z,28.37
2018-11-06T08:15:20.308Z,29.40
2018-11-06T08:17:48.533Z,26.10
2018-11-06T08:20:16.370Z,28.03
2018-11-06T08:22:44.120Z,29.00
2018-11-06T08:25:12.965Z,27.60
2018-11-06T08:27:41.718Z,29.20
2018-11-06T08:30:10.067Z,28.70
2018-11-06T08:32:38.176Z,28.80
2018-11-06T08:35:08.286Z,29.27
2018-11-06T08:37:35.926Z,29.00
2018-11-06T08:40:04.600Z,29.65
2018-11-06T08:42:32.375Z,30.00
2018-11-06T08:45:00.007Z,28.87
2018-11-06T08:47:27.708Z,30.95
2018-11-06T08:49:55.394Z,31.20
2018-11-06T08:52:23.035Z,29.87
2018-11-06T08:54:50.694Z,32.50
2018-11-06T08:57:18.508Z,30.55
2018-11-06T08:59:46.364Z,30.00
2018-11-06T09:02:14.067Z,28.73
2018-11-06T09:04:41.711Z,30.60
2018-11-06T09:07:09.407Z,31.00
2018-11-06T09:09:37.118Z,31.33
2018-11-06T09:12:05.002Z,28.87
2018-11-06T09:14:32.596Z,29.43
2018-11-06T09:17:00.288Z,28.70
2018-11-06T09:19:27.893Z,28.83
2018-11-06T09:21:55.549Z,27.70
2018-11-06T09:28:59.559Z,27.03
2018-11-06T09:31:28.190Z,27.22
2018-11-06T09:33:56.179Z,26.83
2018-11-06T09:36:24.024Z,26.83
2018-11-06T09:38:51.696Z,26.10
2018-11-06T09:41:19.473Z,27.17
2018-11-06T09:43:47.046Z,25.68
2018-11-06T09:46:14.764Z,27.20
2018-11-06T09:48:42.425Z,27.20
2018-11-06T09:51:10.161Z,24.40
2018-11-06T09:53:37.865Z,26.62
2018-11-06T09:56:06.079Z,27.17
2018-11-06T09:58:33.810Z,26.15
2018-11-06T10:01:01.418Z,26.60
2018-11-06T10:03:29.109Z,25.30
2018-11-06T10:05:56.895Z,24.87
2018-11-06T10:08:24.660Z,26.27
2018-11-06T10:10:52.341Z,24.43
2018-11-06T10:13:19.939Z,26.05
2018-11-06T10:15:47.648Z,25.77
2018-11-06T10:18:15.281Z,27.95
2018-11-06T10:20:42.917Z,26.15
2018-11-06T10:23:10.517Z,26.57
2018-11-06T10:25:38.155Z,24.80
2018-11-06T10:28:05.749Z,27.35
2018-11-06T10:30:33.414Z,24.87
2018-11-06T10:33:01.023Z,23.90
2018-11-06T10:35:28.690Z,26.07
2018-11-06T10:37:56.442Z,28.40
2018-11-06T10:40:24.098Z,24.02
2018-11-06T10:42:51.783Z,24.92
2018-11-06T10:45:19.883Z,26.63
2018-11-06T10:47:48.000Z,28.42
2018-11-06T10:50:16.248Z,25.57
2018-11-06T10:52:44.489Z,24.00
2018-11-06T10:55:12.237Z,24.97
2018-11-06T10:57:40.448Z,24.60
2018-11-06T11:00:15.766Z,23.20
2018-11-06T11:02:49.061Z,24.37
2018-11-06T11:05:17.062Z,22.60
2018-11-06T11:07:44.815Z,23.90
2018-11-06T11:10:12.586Z,20.05
2018-11-06T11:12:40.580Z,22.65
2018-11-06T11:15:08.098Z,22.85
2018-11-06T11:17:35.978Z,22.83
2018-11-06T11:20:04.662Z,21.83
2018-11-06T11:22:32.339Z,22.07
2018-11-06T11:25:00.004Z,21.33
2018-11-06T11:27:27.699Z,18.57
2018-11-06T11:29:55.426Z,20.43
2018-11-06T11:32:23.098Z,19.47
2018-11-06T11:34:50.803Z,19.00
2018-11-06T11:37:23.070Z,20.95
2018-11-06T11:39:50.678Z,22.40
2018-11-06T11:42:18.362Z,21.02
2018-11-06T11:44:46.232Z,21.80
2018-11-06T11:47:13.864Z,21.37
2018-11-06T11:49:41.496Z,20.03
2018-11-06T11:52:09.162Z,20.30
2018-11-06T11:54:36.812Z,20.77
2018-11-06T11:57:04.794Z,19.70
2018-11-06T11:59:32.426Z,20.87
2018-11-06T12:02:00.124Z,19.63
2018-11-06T12:04:27.920Z,20.47
2018-11-06T12:06:55.594Z,19.25
2018-11-06T12:09:23.302Z,19.60
2018-11-06T12:11:50.958Z,21.90
2018-11-06T12:14:18.634Z,19.23
2018-11-06T12:16:46.317Z,20.10
2018-11-06T12:19:14.001Z,20.33
2018-11-06T12:21:41.662Z,20.00
2018-11-06T12:24:10.536Z,19.45
2018-11-06T12:26:38.142Z,21.13
2018-11-06T12:29:05.970Z,19.50
2018-11-06T12:31:33.657Z,18.50
2018-11-06T12:34:03.244Z,18.80
2018-11-06T12:36:30.932Z,22.23
2018-11-06T12:38:58.625Z,20.27
2018-11-06T12:41:26.277Z,21.12
2018-11-06T12:43:53.996Z,19.90
2018-11-06T12:46:21.649Z,20.13
2018-11-06T12:48:49.492Z,22.02
2018-11-06T12:51:17.139Z,22.27
2018-11-06T12:53:44.777Z,21.23
2018-11-06T12:56:12.510Z,21.47
2018-11-06T12:58:40.108Z,21.20
2018-11-06T13:01:07.781Z,23.20
2018-11-06T13:03:35.377Z,22.53
2018-11-06T13:06:03.024Z,23.20
2018-11-06T13:08:30.562Z,23.57
2018-11-06T13:10:58.759Z,21.97
2018-11-06T13:13:26.603Z,24.50
2018-11-06T13:15:54.478Z,21.20
2018-11-06T13:18:21.959Z,21.87
2018-11-06T13:20:49.656Z,22.42
2018-11-06T13:23:17.388Z,23.10
2018-11-06T13:25:45.221Z,23.30
2018-11-06T13:28:12.860Z,21.10
2018-11-06T13:30:40.534Z,22.83
2018-11-06T13:33:08.310Z,22.07
2018-11-06T13:35:35.900Z,21.70
2018-11-06T13:38:03.641Z,20.15
2018-11-06T13:40:31.917Z,22.70
2018-11-06T13:42:59.751Z,22.70
2018-11-06T13:45:27.509Z,21.95
2018-11-06T13:47:55.091Z,23.63
2018-11-06T13:50:22.768Z,22.37
2018-11-06T13:52:50.498Z,22.67
2018-11-06T13:55:18.188Z,23.27
2018-11-06T13:57:46.353Z,21.68
2018-11-06T14:00:16.278Z,21.63
2018-11-06T14:02:44.145Z,21.60
2018-11-06T14:05:12.177Z,22.93
2018-11-06T14:07:39.902Z,23.53
2018-11-06T14:10:07.986Z,20.62
2018-11-06T14:12:35.736Z,22.97
2018-11-06T14:15:03.348Z,22.93
2018-11-06T14:17:31.025Z,24.95
2018-11-06T14:19:58.715Z,26.70
2018-11-06T14:22:26.435Z,27.47
2018-11-06T14:24:54.177Z,26.50
2018-11-06T14:27:21.794Z,26.57
2018-11-06T14:29:49.438Z,27.23
2018-11-06T14:32:17.318Z,29.10
2018-11-06T14:34:44.897Z,31.67
2018-11-06T14:37:12.503Z,29.05
2018-11-06T14:39:40.203Z,31.37
2018-11-06T14:42:07.879Z,29.70
2018-11-06T14:44:36.153Z,30.65
2018-11-06T14:47:03.840Z,31.30
2018-11-06T14:49:31.454Z,30.32
2018-11-06T14:51:59.128Z,29.80
2018-11-06T14:54:26.788Z,30.43
2018-11-06T14:56:54.456Z,32.50
2018-11-06T14:59:22.319Z,31.48
2018-11-06T15:01:49.940Z,29.82
2018-11-06T15:04:17.578Z,33.27
2018-11-06T15:06:45.247Z,29.50
2018-11-06T15:09:12.937Z,29.05
2018-11-06T15:11:40.644Z,33.40
2018-11-06T15:14:08.479Z,31.93
2018-11-06T15:16:36.159Z,32.40
2018-11-06T15:19:04.341Z,30.40
2018-11-06T15:21:31.980Z,32.67
2018-11-06T15:23:59.683Z,33.20
2018-11-06T15:26:27.403Z,32.03
2018-11-06T15:28:55.096Z,33.40
2018-11-06T15:31:22.964Z,31.53
2018-11-06T15:33:50.660Z,32.17
2018-11-06T15:36:18.343Z,34.92
2018-11-06T15:38:45.980Z,32.20
2018-11-06T15:41:13.746Z,33.73
2018-11-06T15:43:41.408Z,33.00
2018-11-06T15:46:09.070Z,33.73
2018-11-06T15:48:36.783Z,33.23
2018-11-06T15:51:04.602Z,32.10
2018-11-06T15:53:32.242Z,36.42
2018-11-06T15:55:59.876Z,32.83
2018-11-06T15:58:27.581Z,31.90
2018-11-06T16:00:55.260Z,32.60
2018-11-06T16:03:23.135Z,33.63
2018-11-06T16:05:50.797Z,33.40
2018-11-06T16:08:18.479Z,35.37
2018-11-06T16:10:46.058Z,33.43
2018-11-06T16:13:13.832Z,32.90
2018-11-06T16:15:41.541Z,35.17
2018-11-06T16:18:10.265Z,32.03
2018-11-06T16:20:37.944Z,32.10
2018-11-06T16:23:05.625Z,36.60
2018-11-06T16:25:33.473Z,33.80
2018-11-06T16:28:01.107Z,32.80
2018-11-06T16:30:28.747Z,33.17
2018-11-06T16:32:56.468Z,31.73
2018-11-06T16:35:24.134Z,31.23
2018-11-06T16:37:52.283Z,34.23
2018-11-06T16:40:20.159Z,34.13
2018-11-06T16:42:48.262Z,34.35
2018-11-06T16:45:18.392Z,35.20
2018-11-06T16:47:46.824Z,38.20
2018-11-06T16:50:15.386Z,38.00
2018-11-06T16:52:43.041Z,33.80
2018-11-06T16:55:11.169Z,34.00
2018-11-06T16:57:40.109Z,33.93
2018-11-06T17:00:10.445Z,34.67
2018-11-06T17:02:38.269Z,33.40
2018-11-06T17:05:06.732Z,33.40
2018-11-06T17:07:34.389Z,35.40
2018-11-06T17:10:02.031Z,36.23
2018-11-06T17:12:29.763Z,36.63
2018-11-06T17:14:57.411Z,37.93
2018-11-06T17:17:25.748Z,38.50
2018-11-06T17:19:53.403Z,39.67
2018-11-06T17:22:21.095Z,40.03
2018-11-06T17:24:48.776Z,38.50
2018-11-06T17:27:16.477Z,40.95
2018-11-06T17:29:44.166Z,42.62
2018-11-06T17:32:11.809Z,42.13
2018-11-06T17:34:39.493Z,45.03
2018-11-06T17:37:07.163Z,43.35
2018-11-06T17:39:34.944Z,44.60
2018-11-06T17:42:02.877Z,42.08
2018-11-06T17:44:30.531Z,44.73
2018-11-06T17:46:58.163Z,43.87
2018-11-06T17:49:25.822Z,42.50
2018-11-06T17:51:53.509Z,40.67
2018-11-06T17:54:21.123Z,42.60
2018-11-06T17:56:48.786Z,40.12
2018-11-06T17:59:16.487Z,43.60
2018-11-06T18:01:44.153Z,42.30
2018-11-06T18:04:12.038Z,41.87
2018-11-06T18:06:39.796Z,44.85
2018-11-06T18:09:09.698Z,43.83
2018-11-06T18:11:38.291Z,44.93
2018-11-06T18:14:06.027Z,43.27
2018-11-06T18:16:34.091Z,43.10
2018-11-06T18:19:01.839Z,45.20
2018-11-06T18:21:29.564Z,44.50
2018-11-06T18:23:57.427Z,42.70
2018-11-06T18:26:25.336Z,45.52
2018-11-06T18:28:53.023Z,42.48
2018-11-06T18:31:20.751Z,44.00
2018-11-06T18:33:48.440Z,44.53
2018-11-06T18:36:16.135Z,45.03
2018-11-06T18:38:43.825Z,46.90
2018-11-06T18:41:11.507Z,46.00
2018-11-06T18:43:39.195Z,45.70
2018-11-06T18:46:07.178Z,46.10
2018-11-06T18:48:35.696Z,48.00
2018-11-06T18:51:03.517Z,45.03
2018-11-06T18:53:31.335Z,51.45
2018-11-06T18:55:59.006Z,46.50
2018-11-06T18:58:26.766Z,46.80
2018-11-06T19:00:54.497Z,48.07
2018-11-06T19:03:22.202Z,46.80
2018-11-06T19:05:50.030Z,46.73
2018-11-06T19:08:17.719Z,46.20
2018-11-06T19:10:45.425Z,46.20
2018-11-06T19:13:13.258Z,48.05
2018-11-06T19:15:41.002Z,48.58
2018-11-06T19:18:08.788Z,45.87
2018-11-06T19:20:36.478Z,45.50
2018-11-06T19:23:04.462Z,42.87
2018-11-06T19:25:32.187Z,45.73
2018-11-06T19:27:59.820Z,44.77
2018-11-06T19:30:27.542Z,47.62
2018-11-06T19:32:55.817Z,47.27
2018-11-06T19:35:23.473Z,45.38
2018-11-06T19:37:51.205Z,44.25
2018-11-06T19:40:19.159Z,45.93
2018-11-06T19:42:47.540Z,49.13
2018-11-06T19:45:15.320Z,46.20
2018-11-06T19:47:43.047Z,45.98
2018-11-06T19:50:12.870Z,45.35
2018-11-06T19:52:40.799Z,46.47
2018-11-06T19:55:10.081Z,43.90
2018-11-06T19:57:37.893Z,42.73
2018-11-06T20:00:12.691Z,44.17
2018-11-06T20:02:41.403Z,42.00
2018-11-06T20:05:09.302Z,43.47
2018-11-06T20:07:36.919Z,43.93
2018-11-06T20:10:06.603Z,41.65
2018-11-06T20:12:34.350Z,40.40
2018-11-06T20:15:02.083Z,39.40
2018-11-06T20:17:29.931Z,42.73
2018-11-06T20:19:57.543Z,40.05
2018-11-06T20:22:25.248Z,39.70
2018-11-06T20:24:53.006Z,40.77
2018-11-06T20:27:20.819Z,38.03
2018-11-06T20:29:48.889Z,38.42
2018-11-06T20:32:18.275Z,40.60
2018-11-06T20:34:46.153Z,39.17
2018-11-06T20:37:13.985Z,38.20
2018-11-06T20:39:41.769Z,38.40
2018-11-06T20:42:10.173Z,38.90
2018-11-06T20:44:38.688Z,37.37
2018-11-06T20:47:06.877Z,41.30
2018-11-06T20:49:35.123Z,37.37
2018-11-06T20:52:03.537Z,38.80
2018-11-06T20:54:31.449Z,38.30
2018-11-06T20:58:03.002Z,38.87
2018-11-06T21:00:30.726Z,38.10
2018-11-06T21:03:00.240Z,37.93
2018-11-06T21:05:28.304Z,39.90
2018-11-06T21:07:56.339Z,35.00
2018-11-06T21:10:27.441Z,39.13
2018-11-06T21:12:56.610Z,37.20
2018-11-06T21:15:24.430Z,37.40
2018-11-06T21:17:52.983Z,38.73
2018-11-06T21:20:21.623Z,38.57
2018-11-06T21:22:49.363Z,39.47
2018-11-06T21:25:17.333Z,38.77
2018-11-06T21:27:45.281Z,38.70
2018-11-06T21:30:15.493Z,37.27
2018-11-06T21:32:46.634Z,38.90
2018-11-06T21:35:14.892Z,37.23
2018-11-06T21:37:42.973Z,36.33
2018-11-06T21:40:14.042Z,36.10
2018-11-06T21:42:42.830Z,36.10
2018-11-06T21:45:11.829Z,36.03
2018-11-06T21:47:40.433Z,37.83
2018-11-06T21:50:09.562Z,36.80
2018-11-06T21:52:38.513Z,39.87
2018-11-06T21:55:07.763Z,36.70
2018-11-06T21:57:36.925Z,36.90
2018-11-06T22:00:09.225Z,35.80
2018-11-06T22:02:38.030Z,36.33
2018-11-06T22:05:08.208Z,32.67
2018-11-06T22:07:36.982Z,33.60
2018-11-06T22:10:07.349Z,33.73
2018-11-06T22:12:35.093Z,32.80
2018-11-06T22:15:02.844Z,32.90
2018-11-06T22:17:30.478Z,32.75
2018-11-06T22:19:58.224Z,30.87
2018-11-06T22:22:27.993Z,32.17
2018-11-06T22:24:55.723Z,34.20
2018-11-06T22:27:23.647Z,31.17
2018-11-06T22:29:51.340Z,31.77
2018-11-06T22:32:19.092Z,32.45
2018-11-06T22:34:47.797Z,31.40
2018-11-06T22:37:15.947Z,31.23
2018-11-06T22:39:44.653Z,31.20
2018-11-06T22:42:12.663Z,28.07
2018-11-06T22:44:40.423Z,30.97
2018-11-06T22:47:08.492Z,30.53
2018-11-06T22:49:36.117Z,30.63
2018-11-06T22:52:04.099Z,29.90
2018-11-06T22:54:31.945Z,28.87
2018-11-06T22:56:59.632Z,29.40
2018-11-06T22:59:27.373Z,30.60
2018-11-06T23:01:55.076Z,29.27
2018-11-06T23:04:22.696Z,28.77
2018-11-06T23:06:50.489Z,29.87
2018-11-06T23:09:18.095Z,28.73
2018-11-06T23:11:45.830Z,27.50
2018-11-06T23:14:13.474Z,28.83
2018-11-06T23:16:41.144Z,29.83
2018-11-06T23:19:08.790Z,29.23
2018-11-06T23:21:36.436Z,29.73
2018-11-06T23:24:04.200Z,28.38
2018-11-06T23:26:31.963Z,31.00
2018-11-06T23:28:59.679Z,30.00
2018-11-06T23:31:27.314Z,28.00
2018-11-06T23:33:55.273Z,28.57
2018-11-06T23:36:22.962Z,31.00
2018-11-06T23:38:50.642Z,29.18
2018-11-06T23:41:18.325Z,30.05
2018-11-06T23:43:46.017Z,29.27
2018-11-06T23:46:13.659Z,30.17
2018-11-06T23:48:41.355Z,29.63
2018-11-06T23:51:08.995Z,32.25
2018-11-06T23:53:36.671Z,29.23
2018-11-06T23:56:04.533Z,30.20
2018-11-06T23:58:32.243Z,27.85
